sensor_id;sensor_type;location;lat;lon;timestamp;pressure;altitude;pressure_sealevel;temperature;humidity
21100;BME280;10708;50.824;4.408;2022-08-04T00:01:03;100252.13;;;24.54;100.00
21100;BME280;10708;50.824;4.408;2022-08-04T00:06:13;100253.69;;;24.47;100.00
21100;BME280;10708;50.824;4.408;2022-08-04T00:11:21;100245.09;;;24.44;100.00
21100;BME280;10708;50.824;4.408;2022-08-04T00:16:27;100240.88;;;24.41;100.00
21100;BME280;10708;50.824;4.408;2022-08-04T00:21:32;100241.47;;;24.35;100.00
21100;BME280;10708;50.824;4.408;2022-08-04T00:26:38;100243.63;;;24.32;100.00
21100;BME280;10708;50.824;4.408;2022-08-04T00:31:41;100240.38;;;24.28;100.00
21100;BME280;10708;50.824;4.408;2022-08-04T00:36:43;100225.69;;;24.22;100.00
21100;BME280;10708;50.824;4.408;2022-08-04T00:41:55;100236.44;;;24.22;100.00
21100;BME280;10708;50.824;4.408;2022-08-04T00:47:15;100227.38;;;24.23;100.00
21100;BME280;10708;50.824;4.408;2022-08-04T00:52:35;100223.09;;;24.21;100.00
21100;BME280;10708;50.824;4.408;2022-08-04T00:57:52;100228.41;;;24.13;100.00
21100;BME280;10708;50.824;4.408;2022-08-04T01:03:08;100225.47;;;23.97;100.00
21100;BME280;10708;50.824;4.408;2022-08-04T01:08:33;100221.31;;;23.84;100.00
21100;BME280;10708;50.824;4.408;2022-08-04T01:13:55;100220.78;;;23.71;100.00
21100;BME280;10708;50.824;4.408;2022-08-04T01:19:02;100223.66;;;23.60;100.00
21100;BME280;10708;50.824;4.408;2022-08-04T01:24:29;100229.91;;;23.51;100.00
21100;BME280;10708;50.824;4.408;2022-08-04T01:29:44;100225.53;;;23.50;100.00
21100;BME280;10708;50.824;4.408;2022-08-04T01:34:51;100225.53;;;23.50;100.00
21100;BME280;10708;50.824;4.408;2022-08-04T01:39:59;100222.69;;;23.51;100.00
21100;BME280;10708;50.824;4.408;2022-08-04T01:45:07;100219.72;;;23.54;100.00
21100;BME280;10708;50.824;4.408;2022-08-04T01:50:11;100224.50;;;23.61;100.00
21100;BME280;10708;50.824;4.408;2022-08-04T01:55:15;100218.41;;;23.59;100.00
21100;BME280;10708;50.824;4.408;2022-08-04T02:00:21;100217.72;;;23.57;100.00
21100;BME280;10708;50.824;4.408;2022-08-04T02:05:25;100210.97;;;23.52;100.00
21100;BME280;10708;50.824;4.408;2022-08-04T02:10:32;100217.03;;;23.45;100.00
21100;BME280;10708;50.824;4.408;2022-08-04T02:15:42;100208.81;;;23.37;100.00
21100;BME280;10708;50.824;4.408;2022-08-04T02:20:54;100214.78;;;23.31;100.00
21100;BME280;10708;50.824;4.408;2022-08-04T02:26:01;100213.09;;;23.30;100.00
21100;BME280;10708;50.824;4.408;2022-08-04T02:31:13;100217.91;;;23.26;100.00
21100;BME280;10708;50.824;4.408;2022-08-04T02:36:20;100218.91;;;23.25;100.00
21100;BME280;10708;50.824;4.408;2022-08-04T02:41:25;100216.63;;;23.30;100.00
21100;BME280;10708;50.824;4.408;2022-08-04T02:46:31;100213.94;;;23.30;100.00
21100;BME280;10708;50.824;4.408;2022-08-04T02:51:34;100198.94;;;23.28;100.00
21100;BME280;10708;50.824;4.408;2022-08-04T02:56:38;100202.09;;;23.23;100.00
21100;BME280;10708;50.824;4.408;2022-08-04T03:01:42;100207.16;;;23.16;100.00
21100;BME280;10708;50.824;4.408;2022-08-04T03:18:15;100200.97;;;22.97;100.00
21100;BME280;10708;50.824;4.408;2022-08-04T03:24:07;100200.13;;;22.87;100.00
21100;BME280;10708;50.824;4.408;2022-08-04T03:35:09;100203.50;;;22.69;100.00
21100;BME280;10708;50.824;4.408;2022-08-04T03:40:39;100196.16;;;22.62;100.00
21100;BME280;10708;50.824;4.408;2022-08-04T03:51:35;100198.41;;;22.57;100.00
21100;BME280;10708;50.824;4.408;2022-08-04T03:57:23;100206.63;;;22.55;100.00
21100;BME280;10708;50.824;4.408;2022-08-04T04:08:27;100216.19;;;22.58;100.00
21100;BME280;10708;50.824;4.408;2022-08-04T04:13:48;100210.00;;;22.57;100.00
21100;BME280;10708;50.824;4.408;2022-08-04T04:19:21;100204.22;;;22.52;100.00
21100;BME280;10708;50.824;4.408;2022-08-04T04:25:02;100214.22;;;22.50;100.00
21100;BME280;10708;50.824;4.408;2022-08-04T04:30:06;100203.63;;;22.49;100.00
21100;BME280;10708;50.824;4.408;2022-08-04T04:35:17;100199.38;;;22.46;100.00
21100;BME280;10708;50.824;4.408;2022-08-04T04:40:33;100201.38;;;22.44;100.00
21100;BME280;10708;50.824;4.408;2022-08-04T04:45:47;100210.53;;;22.41;100.00
21100;BME280;10708;50.824;4.408;2022-08-04T04:50:57;100218.84;;;22.38;100.00
21100;BME280;10708;50.824;4.408;2022-08-04T04:56:08;100221.13;;;22.33;100.00
21100;BME280;10708;50.824;4.408;2022-08-04T05:01:40;100222.94;;;22.23;100.00
21100;BME280;10708;50.824;4.408;2022-08-04T05:06:55;100230.25;;;22.21;100.00
21100;BME280;10708;50.824;4.408;2022-08-04T05:12:18;100241.97;;;22.20;100.00
21100;BME280;10708;50.824;4.408;2022-08-04T05:17:27;100249.16;;;22.20;100.00
21100;BME280;10708;50.824;4.408;2022-08-04T05:22:34;100249.16;;;22.20;100.00
21100;BME280;10708;50.824;4.408;2022-08-04T05:27:44;100253.84;;;22.27;100.00
21100;BME280;10708;50.824;4.408;2022-08-04T05:32:54;100247.53;;;22.38;100.00
21100;BME280;10708;50.824;4.408;2022-08-04T05:37:58;100249.94;;;22.41;100.00
21100;BME280;10708;50.824;4.408;2022-08-04T05:43:05;100252.50;;;22.52;100.00
21100;BME280;10708;50.824;4.408;2022-08-04T05:48:08;100255.59;;;22.57;100.00
21100;BME280;10708;50.824;4.408;2022-08-04T05:53:12;100252.53;;;22.62;100.00
21100;BME280;10708;50.824;4.408;2022-08-04T05:58:18;100257.09;;;22.80;100.00
21100;BME280;10708;50.824;4.408;2022-08-04T06:03:21;100260.63;;;22.91;100.00
21100;BME280;10708;50.824;4.408;2022-08-04T06:08:24;100271.50;;;23.18;100.00
21100;BME280;10708;50.824;4.408;2022-08-04T06:13:32;100271.78;;;23.25;100.00
21100;BME280;10708;50.824;4.408;2022-08-04T06:18:38;100272.06;;;23.31;100.00
21100;BME280;10708;50.824;4.408;2022-08-04T06:23:42;100264.69;;;23.43;100.00
21100;BME280;10708;50.824;4.408;2022-08-04T06:28:49;100265.09;;;23.48;100.00
21100;BME280;10708;50.824;4.408;2022-08-04T06:33:53;100263.28;;;23.39;100.00
21100;BME280;10708;50.824;4.408;2022-08-04T06:38:56;100277.00;;;23.45;100.00
21100;BME280;10708;50.824;4.408;2022-08-04T06:44:04;100278.69;;;23.56;100.00
21100;BME280;10708;50.824;4.408;2022-08-04T06:49:10;100278.00;;;23.54;100.00
21100;BME280;10708;50.824;4.408;2022-08-04T06:54:12;100285.75;;;23.67;100.00
21100;BME280;10708;50.824;4.408;2022-08-04T06:59:17;100293.63;;;23.78;100.00
21100;BME280;10708;50.824;4.408;2022-08-04T07:04:20;100297.50;;;24.12;100.00
21100;BME280;10708;50.824;4.408;2022-08-04T07:09:22;100299.72;;;24.54;100.00
21100;BME280;10708;50.824;4.408;2022-08-04T07:14:26;100302.16;;;24.75;100.00
21100;BME280;10708;50.824;4.408;2022-08-04T07:19:30;100308.63;;;24.82;100.00
21100;BME280;10708;50.824;4.408;2022-08-04T07:24:34;100301.66;;;25.07;100.00
21100;BME280;10708;50.824;4.408;2022-08-04T07:29:38;100304.81;;;25.20;100.00
21100;BME280;10708;50.824;4.408;2022-08-04T07:34:42;100304.34;;;25.24;100.00
21100;BME280;10708;50.824;4.408;2022-08-04T07:39:45;100317.31;;;25.47;100.00
21100;BME280;10708;50.824;4.408;2022-08-04T07:44:49;100333.88;;;25.69;100.00
21100;BME280;10708;50.824;4.408;2022-08-04T07:49:51;100347.91;;;25.55;100.00
21100;BME280;10708;50.824;4.408;2022-08-04T07:54:54;100357.00;;;25.54;100.00
21100;BME280;10708;50.824;4.408;2022-08-04T07:59:58;100343.75;;;25.61;100.00
21100;BME280;10708;50.824;4.408;2022-08-04T08:05:00;100356.25;;;25.62;100.00
21100;BME280;10708;50.824;4.408;2022-08-04T08:10:03;100368.34;;;25.22;100.00
21100;BME280;10708;50.824;4.408;2022-08-04T08:15:08;100384.41;;;24.87;100.00
21100;BME280;10708;50.824;4.408;2022-08-04T08:20:12;100398.06;;;24.76;100.00
21100;BME280;10708;50.824;4.408;2022-08-04T08:25:14;100407.03;;;24.67;100.00
21100;BME280;10708;50.824;4.408;2022-08-04T08:30:18;100390.84;;;24.49;100.00
21100;BME280;10708;50.824;4.408;2022-08-04T08:35:22;100381.03;;;24.11;100.00
21100;BME280;10708;50.824;4.408;2022-08-04T08:40:29;100388.22;;;24.20;100.00
21100;BME280;10708;50.824;4.408;2022-08-04T08:46:02;100370.56;;;24.08;100.00
21100;BME280;10708;50.824;4.408;2022-08-04T08:51:39;100392.09;;;23.98;100.00
21100;BME280;10708;50.824;4.408;2022-08-04T08:56:57;100405.44;;;23.90;100.00
21100;BME280;10708;50.824;4.408;2022-08-04T09:02:20;100377.09;;;23.86;100.00
21100;BME280;10708;50.824;4.408;2022-08-04T09:07:42;100400.66;;;23.65;100.00
21100;BME280;10708;50.824;4.408;2022-08-04T09:12:52;100414.38;;;23.62;100.00
21100;BME280;10708;50.824;4.408;2022-08-04T09:18:02;100391.13;;;23.41;100.00
21100;BME280;10708;50.824;4.408;2022-08-04T09:23:14;100382.06;;;23.04;100.00
21100;BME280;10708;50.824;4.408;2022-08-04T09:28:23;100368.91;;;23.01;100.00
21100;BME280;10708;50.824;4.408;2022-08-04T09:33:43;100350.25;;;23.09;100.00
21100;BME280;10708;50.824;4.408;2022-08-04T09:38:54;100385.63;;;23.24;100.00
21100;BME280;10708;50.824;4.408;2022-08-04T09:44:12;100424.81;;;23.45;100.00
21100;BME280;10708;50.824;4.408;2022-08-04T09:49:23;100416.06;;;23.82;100.00
21100;BME280;10708;50.824;4.408;2022-08-04T09:54:45;100398.19;;;23.90;100.00
21100;BME280;10708;50.824;4.408;2022-08-04T09:59:57;100373.69;;;24.03;100.00
21100;BME280;10708;50.824;4.408;2022-08-04T10:05:08;100358.06;;;24.26;100.00
21100;BME280;10708;50.824;4.408;2022-08-04T10:10:22;100348.06;;;25.00;100.00
21100;BME280;10708;50.824;4.408;2022-08-04T10:15:32;100351.13;;;25.59;100.00
21100;BME280;10708;50.824;4.408;2022-08-04T10:20:53;100367.34;;;26.02;100.00
21100;BME280;10708;50.824;4.408;2022-08-04T10:26:04;100381.81;;;26.01;100.00
21100;BME280;10708;50.824;4.408;2022-08-04T10:31:09;100383.53;;;26.02;100.00
21100;BME280;10708;50.824;4.408;2022-08-04T10:36:17;100386.53;;;25.73;100.00
21100;BME280;10708;50.824;4.408;2022-08-04T10:41:26;100394.81;;;25.80;100.00
21100;BME280;10708;50.824;4.408;2022-08-04T10:46:35;100399.81;;;26.19;100.00
21100;BME280;10708;50.824;4.408;2022-08-04T10:51:42;100404.72;;;26.75;100.00
21100;BME280;10708;50.824;4.408;2022-08-04T10:56:51;100389.50;;;26.74;100.00
21100;BME280;10708;50.824;4.408;2022-08-04T11:02:00;100393.59;;;26.86;100.00
21100;BME280;10708;50.824;4.408;2022-08-04T11:07:10;100388.16;;;26.78;100.00
21100;BME280;10708;50.824;4.408;2022-08-04T11:12:16;100390.13;;;27.02;100.00
21100;BME280;10708;50.824;4.408;2022-08-04T11:17:23;100404.53;;;27.27;100.00
21100;BME280;10708;50.824;4.408;2022-08-04T11:22:29;100402.81;;;27.09;100.00
21100;BME280;10708;50.824;4.408;2022-08-04T11:27:38;100391.41;;;26.90;100.00
21100;BME280;10708;50.824;4.408;2022-08-04T11:32:44;100403.63;;;26.94;100.00
21100;BME280;10708;50.824;4.408;2022-08-04T11:37:55;100411.47;;;26.79;100.00
21100;BME280;10708;50.824;4.408;2022-08-04T11:43:07;100411.16;;;26.90;100.00
21100;BME280;10708;50.824;4.408;2022-08-04T11:48:15;100418.63;;;26.54;100.00
21100;BME280;10708;50.824;4.408;2022-08-04T11:53:22;100416.59;;;26.56;100.00
21100;BME280;10708;50.824;4.408;2022-08-04T11:58:25;100422.84;;;26.57;100.00
21100;BME280;10708;50.824;4.408;2022-08-04T12:03:34;100415.81;;;27.06;100.00
21100;BME280;10708;50.824;4.408;2022-08-04T12:08:53;100421.22;;;27.06;100.00
21100;BME280;10708;50.824;4.408;2022-08-04T12:14:06;100421.56;;;27.11;100.00
21100;BME280;10708;50.824;4.408;2022-08-04T12:19:16;100422.84;;;26.91;100.00
21100;BME280;10708;50.824;4.408;2022-08-04T12:24:27;100422.94;;;26.73;100.00
21100;BME280;10708;50.824;4.408;2022-08-04T12:29:33;100430.09;;;26.56;100.00
21100;BME280;10708;50.824;4.408;2022-08-04T12:34:41;100423.91;;;26.64;100.00
21100;BME280;10708;50.824;4.408;2022-08-04T12:39:47;100424.25;;;26.69;100.00
21100;BME280;10708;50.824;4.408;2022-08-04T12:44:53;100414.13;;;26.71;100.00
21100;BME280;10708;50.824;4.408;2022-08-04T12:49:58;100414.16;;;26.79;100.00
21100;BME280;10708;50.824;4.408;2022-08-04T12:55:05;100408.75;;;27.13;100.00
21100;BME280;10708;50.824;4.408;2022-08-04T13:00:08;100406.22;;;27.28;100.00
21100;BME280;10708;50.824;4.408;2022-08-04T13:05:12;100405.38;;;27.11;100.00
21100;BME280;10708;50.824;4.408;2022-08-04T13:10:19;100401.69;;;27.36;100.00
21100;BME280;10708;50.824;4.408;2022-08-04T13:15:24;100411.41;;;27.71;100.00
21100;BME280;10708;50.824;4.408;2022-08-04T13:20:29;100395.81;;;28.14;100.00
21100;BME280;10708;50.824;4.408;2022-08-04T13:25:35;100390.72;;;28.27;100.00
21100;BME280;10708;50.824;4.408;2022-08-04T13:30:43;100388.53;;;28.22;100.00
21100;BME280;10708;50.824;4.408;2022-08-04T13:35:50;100384.06;;;28.54;100.00
21100;BME280;10708;50.824;4.408;2022-08-04T13:40:55;100385.19;;;28.59;100.00
21100;BME280;10708;50.824;4.408;2022-08-04T13:46:00;100387.81;;;28.45;100.00
21100;BME280;10708;50.824;4.408;2022-08-04T13:51:04;100386.75;;;28.46;100.00
21100;BME280;10708;50.824;4.408;2022-08-04T13:56:09;100397.69;;;28.69;100.00
21100;BME280;10708;50.824;4.408;2022-08-04T14:01:19;100383.34;;;28.60;100.00
21100;BME280;10708;50.824;4.408;2022-08-04T14:06:24;100391.13;;;28.63;100.00
21100;BME280;10708;50.824;4.408;2022-08-04T14:11:34;100374.75;;;28.87;100.00
21100;BME280;10708;50.824;4.408;2022-08-04T14:16:37;100380.59;;;29.07;100.00
21100;BME280;10708;50.824;4.408;2022-08-04T14:21:39;100371.75;;;29.13;100.00
21100;BME280;10708;50.824;4.408;2022-08-04T14:26:43;100375.38;;;28.97;100.00
21100;BME280;10708;50.824;4.408;2022-08-04T14:31:46;100371.78;;;28.66;100.00
21100;BME280;10708;50.824;4.408;2022-08-04T14:36:49;100369.31;;;28.48;100.00
21100;BME280;10708;50.824;4.408;2022-08-04T14:41:52;100353.91;;;28.49;100.00
21100;BME280;10708;50.824;4.408;2022-08-04T14:46:56;100357.56;;;28.72;100.00
21100;BME280;10708;50.824;4.408;2022-08-04T14:51:59;100342.81;;;28.75;100.00
21100;BME280;10708;50.824;4.408;2022-08-04T14:57:05;100348.41;;;28.34;100.00
21100;BME280;10708;50.824;4.408;2022-08-04T15:02:09;100347.75;;;28.24;100.00
21100;BME280;10708;50.824;4.408;2022-08-04T15:07:12;100348.41;;;28.34;100.00
21100;BME280;10708;50.824;4.408;2022-08-04T15:12:16;100329.06;;;28.37;100.00
21100;BME280;10708;50.824;4.408;2022-08-04T15:17:19;100339.53;;;28.48;100.00
21100;BME280;10708;50.824;4.408;2022-08-04T15:22:21;100336.34;;;28.45;100.00
21100;BME280;10708;50.824;4.408;2022-08-04T15:27:27;100331.75;;;28.53;100.00
21100;BME280;10708;50.824;4.408;2022-08-04T15:32:31;100329.91;;;28.85;100.00
21100;BME280;10708;50.824;4.408;2022-08-04T15:37:43;100329.63;;;29.03;100.00
21100;BME280;10708;50.824;4.408;2022-08-04T15:43:04;100324.75;;;29.21;100.00
21100;BME280;10708;50.824;4.408;2022-08-04T15:48:32;100332.28;;;29.33;100.00
21100;BME280;10708;50.824;4.408;2022-08-04T16:05:29;100317.91;;;29.25;100.00
21100;BME280;10708;50.824;4.408;2022-08-04T16:10:37;100329.00;;;29.15;100.00
21100;BME280;10708;50.824;4.408;2022-08-04T16:15:42;100322.09;;;29.13;100.00
21100;BME280;10708;50.824;4.408;2022-08-04T16:20:47;100319.97;;;29.00;100.00
21100;BME280;10708;50.824;4.408;2022-08-04T16:25:49;100317.00;;;28.87;100.00
21100;BME280;10708;50.824;4.408;2022-08-04T16:30:58;100316.44;;;28.60;100.00
21100;BME280;10708;50.824;4.408;2022-08-04T16:36:06;100320.84;;;28.14;100.00
21100;BME280;10708;50.824;4.408;2022-08-04T16:41:09;100327.84;;;27.92;100.00
21100;BME280;10708;50.824;4.408;2022-08-04T16:46:11;100332.22;;;27.85;100.00
21100;BME280;10708;50.824;4.408;2022-08-04T16:51:15;100328.50;;;27.86;100.00
21100;BME280;10708;50.824;4.408;2022-08-04T16:56:17;100323.78;;;27.88;100.00
21100;BME280;10708;50.824;4.408;2022-08-04T17:01:20;100322.13;;;27.71;100.00
21100;BME280;10708;50.824;4.408;2022-08-04T17:06:32;100325.66;;;27.55;100.00
21100;BME280;10708;50.824;4.408;2022-08-04T17:11:35;100327.34;;;27.40;100.00
21100;BME280;10708;50.824;4.408;2022-08-04T17:16:39;100328.00;;;27.18;100.00
21100;BME280;10708;50.824;4.408;2022-08-04T17:21:44;100324.19;;;26.87;100.00
21100;BME280;10708;50.824;4.408;2022-08-04T17:26:46;100338.34;;;26.72;100.00
21100;BME280;10708;50.824;4.408;2022-08-04T17:31:49;100340.63;;;26.51;100.00
21100;BME280;10708;50.824;4.408;2022-08-04T17:36:52;100372.13;;;26.34;100.00
21100;BME280;10708;50.824;4.408;2022-08-04T17:41:55;100370.50;;;26.24;100.00
21100;BME280;10708;50.824;4.408;2022-08-04T17:47:06;100376.91;;;26.23;100.00
21100;BME280;10708;50.824;4.408;2022-08-04T17:52:19;100391.66;;;26.10;100.00
21100;BME280;10708;50.824;4.408;2022-08-04T17:57:21;100389.72;;;25.95;100.00
21100;BME280;10708;50.824;4.408;2022-08-04T18:02:25;100407.59;;;25.78;100.00
21100;BME280;10708;50.824;4.408;2022-08-04T18:07:36;100413.06;;;25.51;100.00
21100;BME280;10708;50.824;4.408;2022-08-04T18:12:38;100423.38;;;25.37;100.00
21100;BME280;10708;50.824;4.408;2022-08-04T18:17:43;100446.19;;;25.25;100.00
21100;BME280;10708;50.824;4.408;2022-08-04T18:22:48;100455.84;;;25.18;100.00
21100;BME280;10708;50.824;4.408;2022-08-04T18:27:52;100469.69;;;25.06;100.00
21100;BME280;10708;50.824;4.408;2022-08-04T18:32:55;100492.47;;;24.84;100.00
21100;BME280;10708;50.824;4.408;2022-08-04T18:37:59;100502.69;;;24.71;100.00
21100;BME280;10708;50.824;4.408;2022-08-04T18:43:01;100513.66;;;24.50;100.00
21100;BME280;10708;50.824;4.408;2022-08-04T18:48:04;100513.13;;;24.27;100.00
21100;BME280;10708;50.824;4.408;2022-08-04T18:53:08;100499.41;;;24.11;100.00
21100;BME280;10708;50.824;4.408;2022-08-04T18:58:10;100500.00;;;23.95;100.00
21100;BME280;10708;50.824;4.408;2022-08-04T19:03:12;100513.84;;;23.81;100.00
21100;BME280;10708;50.824;4.408;2022-08-04T19:08:16;100518.34;;;23.51;100.00
21100;BME280;10708;50.824;4.408;2022-08-04T19:13:18;100546.81;;;22.93;100.00
21100;BME280;10708;50.824;4.408;2022-08-04T19:18:20;100587.81;;;22.01;100.00
21100;BME280;10708;50.824;4.408;2022-08-04T19:23:24;100606.44;;;21.26;100.00
21100;BME280;10708;50.824;4.408;2022-08-04T19:28:27;100610.63;;;20.84;100.00
21100;BME280;10708;50.824;4.408;2022-08-04T19:33:29;100609.47;;;20.53;100.00
21100;BME280;10708;50.824;4.408;2022-08-04T19:38:33;100615.09;;;20.37;100.00
21100;BME280;10708;50.824;4.408;2022-08-04T19:43:35;100614.25;;;20.13;100.00
21100;BME280;10708;50.824;4.408;2022-08-04T19:48:38;100587.25;;;20.05;100.00
21100;BME280;10708;50.824;4.408;2022-08-04T19:53:42;100571.91;;;19.96;100.00
21100;BME280;10708;50.824;4.408;2022-08-04T19:58:44;100562.91;;;19.73;100.00
21100;BME280;10708;50.824;4.408;2022-08-04T20:03:46;100544.91;;;19.51;100.00
21100;BME280;10708;50.824;4.408;2022-08-04T20:08:50;100546.84;;;19.49;100.00
21100;BME280;10708;50.824;4.408;2022-08-04T20:13:52;100555.81;;;19.48;100.00
21100;BME280;10708;50.824;4.408;2022-08-04T20:18:54;100554.44;;;19.42;100.00
21100;BME280;10708;50.824;4.408;2022-08-04T20:23:59;100581.25;;;19.41;100.00
21100;BME280;10708;50.824;4.408;2022-08-04T20:29:01;100573.16;;;19.30;100.00
21100;BME280;10708;50.824;4.408;2022-08-04T20:34:03;100559.75;;;19.06;100.00
21100;BME280;10708;50.824;4.408;2022-08-04T20:39:07;100556.44;;;19.02;100.00
21100;BME280;10708;50.824;4.408;2022-08-04T20:44:10;100581.09;;;19.06;100.00
21100;BME280;10708;50.824;4.408;2022-08-04T20:49:12;100589.50;;;19.12;100.00
21100;BME280;10708;50.824;4.408;2022-08-04T20:54:16;100605.84;;;19.21;100.00
21100;BME280;10708;50.824;4.408;2022-08-04T20:59:18;100599.34;;;19.12;100.00
21100;BME280;10708;50.824;4.408;2022-08-04T21:04:20;100602.75;;;19.14;100.00
21100;BME280;10708;50.824;4.408;2022-08-04T21:09:34;100602.22;;;19.22;100.00
21100;BME280;10708;50.824;4.408;2022-08-04T21:14:36;100583.53;;;19.22;100.00
21100;BME280;10708;50.824;4.408;2022-08-04T21:19:38;100571.69;;;19.26;100.00
21100;BME280;10708;50.824;4.408;2022-08-04T21:24:43;100541.31;;;19.27;100.00
21100;BME280;10708;50.824;4.408;2022-08-04T21:29:45;100512.59;;;19.30;100.00
21100;BME280;10708;50.824;4.408;2022-08-04T21:34:47;100499.97;;;19.32;100.00
21100;BME280;10708;50.824;4.408;2022-08-04T21:39:51;100490.16;;;19.33;100.00
21100;BME280;10708;50.824;4.408;2022-08-04T21:44:53;100539.81;;;19.35;100.00
21100;BME280;10708;50.824;4.408;2022-08-04T21:49:55;100567.03;;;19.40;100.00
21100;BME280;10708;50.824;4.408;2022-08-04T21:54:59;100562.75;;;19.38;100.00
21100;BME280;10708;50.824;4.408;2022-08-04T22:00:01;100558.28;;;19.38;100.00
21100;BME280;10708;50.824;4.408;2022-08-04T22:05:04;100550.03;;;19.41;100.00
21100;BME280;10708;50.824;4.408;2022-08-04T22:10:08;100550.38;;;19.49;100.00
21100;BME280;10708;50.824;4.408;2022-08-04T22:15:10;100549.31;;;19.52;100.00
21100;BME280;10708;50.824;4.408;2022-08-04T22:20:14;100550.91;;;19.55;100.00
21100;BME280;10708;50.824;4.408;2022-08-04T22:25:17;100542.78;;;19.56;100.00
21100;BME280;10708;50.824;4.408;2022-08-04T22:30:20;100547.97;;;19.58;100.00
21100;BME280;10708;50.824;4.408;2022-08-04T22:35:22;100553.56;;;19.55;100.00
21100;BME280;10708;50.824;4.408;2022-08-04T22:40:26;100557.31;;;19.52;100.00
21100;BME280;10708;50.824;4.408;2022-08-04T22:45:28;100550.16;;;19.52;100.00
21100;BME280;10708;50.824;4.408;2022-08-04T22:50:30;100541.28;;;19.52;100.00
21100;BME280;10708;50.824;4.408;2022-08-04T22:55:34;100549.81;;;19.57;100.00
21100;BME280;10708;50.824;4.408;2022-08-04T23:00:37;100535.59;;;19.57;100.00
21100;BME280;10708;50.824;4.408;2022-08-04T23:05:39;100535.59;;;19.57;100.00
21100;BME280;10708;50.824;4.408;2022-08-04T23:10:43;100532.91;;;19.57;100.00
21100;BME280;10708;50.824;4.408;2022-08-04T23:15:45;100532.59;;;19.61;100.00
21100;BME280;10708;50.824;4.408;2022-08-04T23:20:48;100532.38;;;19.64;100.00
21100;BME280;10708;50.824;4.408;2022-08-04T23:25:51;100530.44;;;19.66;100.00
21100;BME280;10708;50.824;4.408;2022-08-04T23:30:54;100531.41;;;19.65;100.00
21100;BME280;10708;50.824;4.408;2022-08-04T23:35:57;100525.94;;;19.67;100.00
21100;BME280;10708;50.824;4.408;2022-08-04T23:41:05;100516.25;;;19.66;100.00
21100;BME280;10708;50.824;4.408;2022-08-04T23:46:07;100517.31;;;19.63;100.00
21100;BME280;10708;50.824;4.408;2022-08-04T23:51:11;100513.16;;;19.59;100.00
21100;BME280;10708;50.824;4.408;2022-08-04T23:56:15;100508.38;;;19.51;100.00
